createdAt,value
2023-04-09T00:01:47.195Z,11.27
2023-04-09T00:04:22.433Z,11.90
2023-04-09T00:06:55.220Z,12.77
2023-04-09T00:09:28.125Z,11.70
2023-04-09T00:14:33.399Z,12.35
2023-04-09T00:17:06.070Z,11.77
2023-04-09T00:19:40.280Z,13.10
2023-04-09T00:22:13.193Z,12.00
2023-04-09T00:27:26.517Z,12.52
2023-04-09T00:29:59.297Z,11.48
2023-04-09T00:32:32.144Z,11.80
2023-04-09T00:37:40.123Z,11.38
2023-04-09T00:40:13.181Z,11.63
2023-04-09T00:42:46.094Z,11.75
2023-04-09T00:47:51.902Z,12.80
2023-04-09T00:50:26.498Z,10.35
2023-04-09T00:52:59.333Z,10.25
2023-04-09T00:55:32.555Z,11.10
2023-04-09T00:58:05.530Z,12.13
2023-04-09T01:00:38.767Z,11.18
2023-04-09T01:03:11.716Z,10.68
2023-04-09T01:05:54.562Z,10.82
2023-04-09T01:08:34.570Z,11.77
2023-04-09T01:11:16.991Z,11.60
2023-04-09T01:13:58.722Z,10.18
2023-04-09T01:16:35.271Z,11.20
2023-04-09T01:19:14.844Z,11.70
2023-04-09T01:21:49.575Z,10.02
2023-04-09T01:24:42.621Z,10.40
2023-04-09T01:27:17.344Z,11.10
2023-04-09T01:30:03.180Z,10.95
2023-04-09T01:32:39.952Z,10.05
2023-04-09T01:35:13.814Z,11.77
2023-04-09T01:37:47.374Z,11.65
2023-04-09T01:40:20.452Z,10.52
2023-04-09T01:42:54.787Z,12.50
2023-04-09T01:45:28.981Z,11.32
2023-04-09T01:48:03.567Z,11.32
2023-04-09T01:50:36.826Z,11.77
2023-04-09T01:53:09.767Z,10.40
2023-04-09T01:55:42.948Z,11.20
2023-04-09T01:58:15.781Z,11.38
2023-04-09T02:00:50.602Z,10.85
2023-04-09T02:03:26.265Z,10.75
2023-04-09T02:06:05.306Z,12.68
2023-04-09T02:08:38.729Z,11.82
2023-04-09T02:11:12.619Z,11.10
2023-04-09T02:13:46.118Z,11.60
2023-04-09T02:16:21.928Z,10.48
2023-04-09T02:18:57.457Z,13.43
2023-04-09T02:21:31.746Z,10.40
2023-04-09T02:24:04.735Z,11.98
2023-04-09T02:29:10.278Z,10.82
2023-04-09T02:31:45.175Z,10.52
2023-04-09T02:34:17.975Z,10.85
2023-04-09T02:36:50.864Z,10.65
2023-04-09T02:41:57.814Z,10.75
2023-04-09T02:44:32.795Z,11.32
2023-04-09T02:47:07.490Z,10.38
2023-04-09T02:49:41.299Z,10.52
2023-04-09T02:54:46.636Z,11.00
2023-04-09T02:57:19.660Z,10.20
2023-04-09T03:02:26.551Z,10.40
2023-04-09T03:04:59.474Z,10.23
2023-04-09T03:07:32.254Z,11.38
2023-04-09T03:10:05.443Z,11.38
2023-04-09T03:12:38.128Z,11.63
2023-04-09T03:15:11.458Z,11.50
2023-04-09T03:17:45.928Z,12.07
2023-04-09T03:20:18.777Z,10.65
2023-04-09T03:25:32.306Z,11.38
2023-04-09T03:28:09.183Z,12.05
2023-04-09T03:30:47.287Z,11.10
2023-04-09T03:33:22.274Z,11.05
2023-04-09T03:35:59.084Z,10.30
2023-04-09T03:39:01.594Z,9.88
2023-04-09T03:41:43.294Z,10.03
2023-04-09T03:44:20.292Z,10.68
2023-04-09T03:47:06.873Z,10.77
2023-04-09T03:49:42.380Z,11.02
2023-04-09T03:52:29.832Z,10.20
2023-04-09T03:55:11.350Z,11.13
2023-04-09T03:57:44.409Z,10.38
2023-04-09T04:00:22.594Z,10.32
2023-04-09T04:03:18.870Z,9.70
2023-04-09T04:06:12.917Z,10.82
2023-04-09T04:09:11.854Z,10.00
2023-04-09T04:11:50.012Z,10.13
2023-04-09T04:14:24.390Z,10.98
2023-04-09T04:17:03.818Z,10.82
2023-04-09T04:19:37.647Z,10.02
2023-04-09T04:22:11.950Z,10.25
2023-04-09T04:24:48.218Z,9.48
2023-04-09T04:27:25.573Z,10.40
2023-04-09T04:30:02.117Z,10.43
2023-04-09T04:33:01.422Z,9.73
2023-04-09T04:35:41.240Z,9.70
2023-04-09T04:38:21.811Z,9.98
2023-04-09T04:40:56.045Z,9.85
2023-04-09T04:43:29.866Z,10.43
2023-04-09T04:46:06.229Z,10.02
2023-04-09T04:48:39.577Z,9.73
2023-04-09T04:51:12.671Z,8.95
2023-04-09T04:53:52.642Z,9.70
2023-04-09T04:56:25.436Z,9.50
2023-04-09T04:59:08.140Z,9.82
2023-04-09T05:01:53.142Z,9.52
2023-04-09T05:04:26.036Z,10.25
2023-04-09T05:06:59.784Z,9.60
2023-04-09T05:09:34.121Z,9.23
2023-04-09T05:12:11.510Z,9.63
2023-04-09T05:14:44.809Z,9.48
2023-04-09T05:17:17.545Z,8.95
2023-04-09T05:19:52.566Z,9.73
2023-04-09T05:22:29.588Z,9.35
2023-04-09T05:27:37.281Z,9.48
2023-04-09T05:30:11.428Z,10.82
2023-04-09T05:32:45.453Z,9.27
2023-04-09T05:35:18.502Z,10.02
2023-04-09T05:37:51.652Z,9.07
2023-04-09T05:40:25.919Z,8.88
2023-04-09T05:42:59.782Z,11.07
2023-04-09T05:45:45.977Z,10.23
2023-04-09T05:48:19.735Z,9.77
2023-04-09T05:50:55.358Z,10.00
2023-04-09T05:53:32.765Z,10.02
2023-04-09T05:56:14.335Z,9.65
2023-04-09T05:58:53.557Z,8.65
2023-04-09T06:03:59.353Z,9.50
2023-04-09T06:06:36.017Z,10.00
2023-04-09T06:09:08.728Z,10.13
2023-04-09T06:11:44.990Z,11.13
2023-04-09T06:14:18.469Z,11.60
2023-04-09T06:16:51.264Z,11.30
2023-04-09T06:19:24.029Z,11.20
2023-04-09T06:21:56.720Z,11.10
2023-04-09T06:24:29.765Z,10.73
2023-04-09T06:27:04.113Z,12.13
2023-04-09T06:29:37.299Z,10.38
2023-04-09T06:32:10.349Z,11.82
2023-04-09T06:37:15.827Z,13.07
2023-04-09T06:40:00.624Z,12.45
2023-04-09T06:42:35.675Z,13.52
2023-04-09T06:45:20.648Z,12.00
2023-04-09T06:47:53.385Z,11.30
2023-04-09T06:50:26.652Z,11.85
2023-04-09T06:52:59.510Z,12.73
2023-04-09T06:55:32.254Z,12.48
2023-04-09T06:58:06.762Z,13.13
2023-04-09T07:00:39.746Z,13.63
2023-04-09T07:03:18.551Z,16.33
2023-04-09T07:05:52.044Z,14.82
2023-04-09T07:08:25.119Z,16.13
2023-04-09T07:10:57.997Z,16.48
2023-04-09T07:16:06.794Z,16.80
2023-04-09T07:18:40.296Z,16.58
2023-04-09T07:21:13.144Z,18.20
2023-04-09T07:23:46.755Z,16.33
2023-04-09T07:26:19.688Z,19.30
2023-04-09T07:31:27.326Z,17.40
2023-04-09T07:34:00.231Z,17.00
2023-04-09T07:39:05.760Z,18.10
2023-04-09T07:44:13.759Z,23.60
2023-04-09T07:46:47.224Z,19.10
2023-04-09T07:49:20.070Z,18.70
2023-04-09T07:54:26.123Z,19.95
2023-04-09T07:59:34.367Z,17.52
2023-04-09T08:02:07.384Z,21.48
2023-04-09T08:04:40.514Z,21.45
2023-04-09T08:07:13.586Z,22.70
2023-04-09T08:09:46.509Z,23.58
2023-04-09T08:12:19.437Z,22.35
2023-04-09T08:14:53.670Z,22.17
2023-04-09T08:17:27.449Z,22.10
2023-04-09T08:20:00.771Z,22.08
2023-04-09T08:22:34.599Z,23.33
2023-04-09T08:25:08.522Z,23.95
2023-04-09T08:27:41.382Z,25.15
2023-04-09T08:32:51.610Z,24.58
2023-04-09T08:37:57.653Z,25.95
2023-04-09T08:40:35.554Z,26.20
2023-04-09T08:43:09.482Z,27.52
2023-04-09T08:45:44.226Z,29.65
2023-04-09T08:48:19.256Z,27.70
2023-04-09T08:50:52.673Z,28.65
2023-04-09T08:53:27.474Z,31.42
2023-04-09T08:56:00.639Z,30.63
2023-04-09T08:58:34.456Z,30.13
2023-04-09T09:01:19.681Z,32.47
2023-04-09T09:03:58.027Z,32.95
2023-04-09T09:06:33.423Z,31.23
2023-04-09T09:09:08.496Z,31.33
2023-04-09T09:11:43.184Z,31.85
2023-04-09T09:14:18.054Z,32.17
2023-04-09T09:17:08.458Z,31.08
2023-04-09T09:19:41.473Z,33.38
2023-04-09T09:27:37.073Z,33.60
2023-04-09T09:30:12.015Z,33.45
2023-04-09T09:32:46.518Z,33.80
2023-04-09T09:35:19.533Z,34.88
2023-04-09T09:38:04.076Z,35.40
2023-04-09T09:40:36.987Z,36.88
2023-04-09T09:45:50.251Z,36.17
2023-04-09T09:48:25.766Z,37.47
2023-04-09T09:51:01.607Z,39.50
2023-04-09T09:53:40.813Z,39.13
2023-04-09T09:56:20.245Z,40.08
2023-04-09T09:59:03.748Z,41.42
2023-04-09T10:01:38.551Z,42.20
2023-04-09T10:04:18.760Z,39.97
2023-04-09T10:06:56.551Z,41.65
2023-04-09T10:09:29.736Z,42.63
2023-04-09T10:12:05.013Z,43.15
2023-04-09T10:14:41.238Z,42.13
2023-04-09T10:17:16.244Z,42.67
2023-04-09T10:20:00.501Z,40.15
2023-04-09T10:22:36.367Z,41.20
2023-04-09T10:25:10.004Z,43.72
2023-04-09T10:27:46.165Z,42.95
2023-04-09T10:30:34.559Z,41.83
2023-04-09T10:33:11.765Z,40.67
2023-04-09T10:35:48.675Z,41.03
2023-04-09T10:38:35.503Z,41.22
2023-04-09T10:41:15.158Z,41.20
2023-04-09T10:43:48.897Z,42.38
2023-04-09T10:46:29.479Z,42.97
2023-04-09T10:49:18.027Z,42.47
2023-04-09T10:52:03.305Z,40.88
2023-04-09T10:54:45.798Z,42.70
2023-04-09T10:57:22.738Z,41.95
2023-04-09T10:59:56.488Z,44.58
2023-04-09T11:03:03.104Z,38.17
2023-04-09T11:05:40.482Z,40.58
2023-04-09T11:08:15.726Z,42.20
2023-04-09T11:10:51.219Z,41.25
2023-04-09T11:13:25.779Z,41.00
2023-04-09T11:16:00.201Z,40.03
2023-04-09T11:18:34.811Z,40.63
2023-04-09T11:21:07.790Z,44.38
2023-04-09T11:23:43.041Z,41.10
2023-04-09T11:26:16.638Z,43.28
2023-04-09T11:28:49.460Z,44.60
2023-04-09T11:31:28.816Z,44.03
2023-04-09T11:34:01.701Z,40.88
2023-04-09T11:36:36.714Z,38.70
2023-04-09T11:39:10.949Z,43.45
2023-04-09T11:41:44.735Z,44.15
2023-04-09T11:44:17.540Z,44.83
2023-04-09T11:49:25.279Z,43.33
2023-04-09T11:52:01.089Z,43.58
2023-04-09T11:54:35.814Z,43.75
2023-04-09T11:57:08.791Z,44.20
2023-04-09T12:02:19.095Z,43.03
2023-04-09T12:04:52.819Z,46.30
2023-04-09T12:07:33.412Z,43.30
2023-04-09T12:10:11.540Z,41.53
2023-04-09T12:12:46.199Z,44.03
2023-04-09T12:15:23.151Z,44.70
2023-04-09T12:17:57.079Z,42.28
2023-04-09T12:20:35.771Z,42.97
2023-04-09T12:23:10.013Z,41.13
2023-04-09T12:25:45.503Z,41.88
2023-04-09T12:28:18.982Z,41.22
2023-04-09T12:30:52.607Z,42.88
2023-04-09T12:33:25.365Z,41.45
2023-04-09T12:35:58.635Z,41.78
2023-04-09T12:38:31.479Z,42.45
2023-04-09T12:41:05.850Z,38.55
2023-04-09T12:43:39.230Z,39.05
2023-04-09T12:46:13.027Z,37.53
2023-04-09T12:48:45.918Z,38.67
2023-04-09T12:53:51.639Z,36.67
2023-04-09T12:56:26.691Z,37.20
2023-04-09T12:59:00.739Z,36.97
2023-04-09T13:04:06.783Z,36.65
2023-04-09T13:09:12.273Z,37.15
2023-04-09T13:11:46.449Z,35.95
2023-04-09T13:14:19.586Z,36.40
2023-04-09T13:16:54.145Z,34.70
2023-04-09T13:19:28.272Z,34.90
2023-04-09T13:22:10.089Z,35.15
2023-04-09T13:24:45.897Z,34.47
2023-04-09T13:27:20.746Z,33.13
2023-04-09T13:29:53.562Z,34.72
2023-04-09T13:32:26.682Z,36.05
2023-04-09T13:34:59.587Z,31.98
2023-04-09T13:40:05.132Z,32.58
2023-04-09T13:45:12.551Z,31.15
2023-04-09T13:47:45.329Z,31.08
2023-04-09T13:50:18.384Z,30.55
2023-04-09T13:55:23.851Z,32.27
2023-04-09T13:57:57.934Z,32.05
2023-04-09T14:00:31.726Z,28.48
2023-04-09T14:03:05.052Z,31.63
2023-04-09T14:05:43.769Z,31.00
2023-04-09T14:08:18.461Z,32.42
2023-04-09T14:10:53.143Z,30.35
2023-04-09T14:13:27.324Z,31.92
2023-04-09T14:16:00.654Z,27.75
2023-04-09T14:18:35.771Z,29.45
2023-04-09T14:21:10.314Z,27.27
2023-04-09T14:23:43.401Z,26.92
2023-04-09T14:26:16.567Z,26.80
2023-04-09T14:28:50.874Z,27.88
2023-04-09T14:31:27.037Z,29.77
2023-04-09T14:33:59.919Z,27.77
2023-04-09T14:36:33.017Z,26.50
2023-04-09T14:39:05.739Z,25.20
2023-04-09T14:41:38.470Z,23.60
2023-04-09T14:44:12.578Z,23.42
2023-04-09T14:46:45.520Z,23.25
2023-04-09T14:49:18.271Z,23.02
2023-04-09T14:51:51.051Z,22.90
2023-04-09T14:56:57.113Z,21.20
2023-04-09T14:59:31.138Z,20.75
2023-04-09T15:02:03.959Z,19.83
2023-04-09T15:04:36.848Z,20.20
2023-04-09T15:07:09.716Z,19.02
2023-04-09T15:12:14.864Z,20.25
2023-04-09T15:14:48.917Z,20.38
2023-04-09T15:17:21.958Z,17.80
2023-04-09T15:19:54.723Z,18.00
2023-04-09T15:22:27.556Z,20.05
2023-04-09T15:25:00.531Z,17.98
2023-04-09T15:30:09.164Z,20.08
2023-04-09T15:32:42.071Z,16.55
2023-04-09T15:37:51.938Z,16.50
2023-04-09T15:43:01.507Z,16.13
2023-04-09T15:45:35.570Z,16.98
2023-04-09T15:48:08.600Z,14.40
2023-04-09T15:50:41.330Z,16.00
2023-04-09T15:53:14.957Z,16.95
2023-04-09T15:55:49.320Z,13.68
2023-04-09T15:58:22.194Z,13.43
2023-04-09T16:03:28.834Z,14.23
2023-04-09T16:06:07.340Z,14.15
2023-04-09T16:08:40.719Z,13.65
2023-04-09T16:11:13.392Z,13.40
2023-04-09T16:13:46.146Z,13.65
2023-04-09T16:16:20.764Z,13.73
2023-04-09T16:18:57.454Z,12.52
2023-04-09T16:21:30.065Z,12.25
2023-04-09T16:24:02.937Z,12.35
2023-04-09T16:29:08.581Z,13.38
2023-04-09T16:31:42.861Z,13.10
2023-04-09T16:34:15.807Z,11.52
2023-04-09T16:39:21.166Z,11.27
2023-04-09T16:41:53.771Z,12.82
2023-04-09T16:44:26.912Z,13.27
2023-04-09T16:47:01.122Z,14.18
2023-04-09T16:49:33.968Z,12.30
2023-04-09T16:52:06.764Z,12.43
2023-04-09T16:54:39.796Z,11.13
2023-04-09T16:57:12.738Z,10.65
2023-04-09T17:02:22.045Z,10.88
2023-04-09T17:04:55.213Z,10.80
2023-04-09T17:07:28.487Z,10.25
2023-04-09T17:10:01.200Z,10.65
2023-04-09T17:12:34.126Z,10.23
2023-04-09T17:17:41.381Z,9.45
2023-04-09T17:20:14.859Z,11.88
2023-04-09T17:22:47.629Z,19.35
2023-04-09T17:25:21.445Z,27.02
2023-04-09T17:27:54.575Z,25.50
2023-04-09T17:30:27.552Z,28.38
2023-04-09T17:35:34.791Z,29.73
2023-04-09T17:40:40.446Z,27.98
2023-04-09T17:45:47.005Z,31.05
2023-04-09T17:50:54.133Z,32.17
2023-04-09T17:53:27.234Z,34.60
2023-04-09T17:58:35.906Z,33.88
2023-04-09T18:01:09.704Z,36.25
2023-04-09T18:03:45.642Z,34.70
2023-04-09T18:06:18.836Z,37.60
2023-04-09T18:08:52.463Z,36.30
2023-04-09T18:11:25.975Z,38.97
2023-04-09T18:13:58.746Z,37.30
2023-04-09T18:16:32.102Z,38.38
2023-04-09T18:19:06.768Z,38.80
2023-04-09T18:21:39.644Z,38.40
2023-04-09T18:24:12.702Z,38.15
2023-04-09T18:29:20.715Z,38.92
2023-04-09T18:31:55.719Z,40.45
2023-04-09T18:34:29.938Z,40.03
2023-04-09T18:37:02.830Z,42.45
2023-04-09T18:39:36.335Z,40.45
2023-04-09T18:42:09.031Z,39.15
2023-04-09T18:44:42.460Z,40.75
2023-04-09T18:47:15.445Z,40.50
2023-04-09T18:49:49.616Z,44.00
2023-04-09T18:52:22.487Z,40.38
2023-04-09T18:54:55.757Z,43.88
2023-04-09T18:57:28.907Z,44.72
2023-04-09T19:00:03.368Z,39.70
2023-04-09T19:02:36.662Z,42.80
2023-04-09T19:05:11.877Z,42.75
2023-04-09T19:07:44.608Z,43.50
2023-04-09T19:10:17.281Z,44.20
2023-04-09T19:12:53.756Z,43.72
2023-04-09T19:15:28.605Z,42.55
2023-04-09T19:18:01.464Z,44.03
2023-04-09T19:20:35.534Z,43.40
2023-04-09T19:23:08.664Z,43.38
2023-04-09T19:25:42.827Z,44.03
2023-04-09T19:28:15.854Z,44.80
2023-04-09T19:30:50.334Z,46.38
2023-04-09T19:33:24.362Z,42.53
2023-04-09T19:35:58.703Z,42.63
2023-04-09T19:38:34.499Z,40.92
2023-04-09T19:41:07.545Z,42.67
2023-04-09T19:43:41.896Z,41.17
2023-04-09T19:46:14.668Z,41.88
2023-04-09T19:48:48.508Z,43.25
2023-04-09T19:51:22.833Z,41.80
2023-04-09T19:53:55.626Z,41.70
2023-04-09T19:56:28.505Z,42.78
2023-04-09T19:59:02.280Z,42.38
2023-04-09T20:01:35.289Z,42.33
2023-04-09T20:04:09.267Z,43.00
2023-04-09T20:06:45.440Z,38.60
2023-04-09T20:09:18.925Z,43.42
2023-04-09T20:11:52.037Z,40.85
2023-04-09T20:16:57.813Z,39.00
2023-04-09T20:22:05.379Z,35.88
2023-04-09T20:24:38.387Z,37.13
2023-04-09T20:29:44.219Z,34.08
2023-04-09T20:32:17.216Z,34.17
2023-04-09T20:34:50.443Z,34.22
2023-04-09T20:37:24.708Z,34.60
2023-04-09T20:39:58.878Z,34.83
2023-04-09T20:42:33.294Z,34.03
2023-04-09T20:45:07.470Z,33.05
2023-04-09T20:47:43.499Z,32.08
2023-04-09T20:50:16.569Z,32.42
2023-04-09T20:52:50.877Z,31.73
2023-04-09T20:55:23.891Z,32.95
2023-04-09T21:00:32.104Z,30.23
2023-04-09T21:03:05.294Z,27.17
2023-04-09T21:05:38.513Z,28.73
2023-04-09T21:08:15.411Z,25.92
2023-04-09T21:10:48.192Z,25.90
2023-04-09T21:13:21.398Z,25.80
2023-04-09T21:15:58.255Z,25.05
2023-04-09T21:18:31.206Z,25.80
2023-04-09T21:21:07.647Z,24.15
2023-04-09T21:23:42.547Z,25.63
2023-04-09T21:26:15.678Z,23.02
2023-04-09T21:28:50.584Z,22.02
2023-04-09T21:31:23.753Z,22.58
2023-04-09T21:33:56.733Z,21.85
2023-04-09T21:39:22.917Z,20.92
2023-04-09T21:41:55.890Z,20.27
2023-04-09T21:47:02.017Z,19.63
2023-04-09T21:49:40.735Z,20.65
2023-04-09T21:52:15.638Z,18.55
2023-04-09T21:54:54.435Z,20.48
2023-04-09T21:57:27.353Z,18.40
2023-04-09T22:00:00.305Z,17.52
2023-04-09T22:05:10.656Z,17.70
2023-04-09T22:07:44.608Z,16.25
2023-04-09T22:10:19.348Z,16.00
2023-04-09T22:12:52.190Z,16.08
2023-04-09T22:15:25.041Z,15.50
2023-04-09T22:17:58.674Z,15.43
2023-04-09T22:20:34.697Z,14.55
2023-04-09T22:23:08.687Z,14.82
2023-04-09T22:25:43.007Z,15.20
2023-04-09T22:28:15.809Z,13.60
2023-04-09T22:30:48.519Z,14.50
2023-04-09T22:33:21.536Z,13.82
2023-04-09T22:38:27.371Z,13.65
2023-04-09T22:43:34.052Z,13.32
2023-04-09T22:46:07.208Z,14.27
2023-04-09T22:48:44.521Z,13.35
2023-04-09T22:51:17.897Z,12.10
2023-04-09T22:53:53.401Z,13.00
2023-04-09T22:56:27.662Z,13.23
2023-04-09T22:59:00.897Z,13.35
2023-04-09T23:01:34.085Z,11.77
2023-04-09T23:04:08.617Z,11.77
2023-04-09T23:06:41.648Z,12.05
2023-04-09T23:09:14.482Z,13.35
2023-04-09T23:11:48.611Z,12.48
2023-04-09T23:14:21.478Z,12.50
2023-04-09T23:16:54.183Z,13.27
2023-04-09T23:19:27.106Z,13.32
2023-04-09T23:21:59.869Z,13.50
2023-04-09T23:24:32.783Z,13.60
2023-04-09T23:27:09.766Z,11.95
2023-04-09T23:29:42.929Z,12.30
2023-04-09T23:32:15.766Z,12.73
2023-04-09T23:37:24.668Z,9.40
2023-04-09T23:40:00.225Z,13.35
2023-04-09T23:42:34.552Z,13.30
2023-04-09T23:45:08.431Z,12.85
2023-04-09T23:47:42.337Z,12.00
2023-04-09T23:50:15.489Z,13.63
2023-04-09T23:52:50.060Z,13.35
2023-04-09T23:55:23.006Z,13.40
2023-04-09T23:57:57.574Z,11.32
